Thompson, Canada
Current Conditions -  °F | °C
As of 7:00 PM on Tuesday 25 Nov 2014 (Local Time) from CYTH Reporting Station
Clear Clear  
Wind Chill: -35°   Ceiling: Unl
Heat Index: -18°   Visibility: 15mi
Dew Point: -24°   Wind: 7mph
Humidity: 76%   Direction: 300°WNW
Pressure: 30.18"   Gusts: NA
Location:  55.74°N, 97.85°W
Report Text: CYTH 260100Z 30006KT 15SM SKC M28/M31 A3018 RMK SLP258
Loading
Personal Weather Stations






























Interactive Weather Map New forecast layout! Learn more

10-Day Weather Forecast

Advertisements
Track Severe Weather on mobile